Grizzly Air Cargo 5354


PANC
Ted Stevens Anchorage International Airport
Anchorage, Alaska, US
PAVD
Valdez Pioneer Field Airport
Valdez, Alaska, US

Activity Log

Date Flight Route Aircraft Duration
09/26/2019 GRZ554 YESKA BIGH MNL SF34 0h 35m

Route Details

Aircraft Information
Primary: Saab 340AF
Backup: Not Available
Route Data
Distance: 129nm
Sched. Duration: 0h 60m
Avg. Duration: 0h 35m (-25m)
Times Flown: 1
Recm'd Route: YESKA BIGH MNL
Planned Altitude: 17,000ft
Origin Wx: PANC 280953Z 00000KT 10SM CLR M11/M13 A2971 RMK AO2 SLP064 I1000 T11111128 $
Dest. Wx: PAVD 280656Z 07003KT 10SM BKN100 M07/M11 A2967
Notes:

Financial History
Total Freight: 7,055lbs
Average Load: 7,055lbs/flt
Fuel Used: 508lbs
Avg. Fuel Used: 508lbs/flt
Fuel Expense: $630
Avg. Fuel Expense: $630
Avg. Fuel Cost: $1.24/lbs
Total Gross Income: $13,334
Pilot Pay: $229
Total Expenses: $1,492
Total Revenue: $11,073
Average Revenue: $13,333.95